createdAt,value
2023-04-16T00:01:03.000Z,0
2023-04-16T00:02:07.000Z,0
2023-04-16T00:03:12.000Z,0
2023-04-16T00:04:16.000Z,0
2023-04-16T00:05:20.000Z,0
2023-04-16T00:06:25.000Z,0
2023-04-16T00:07:29.000Z,0
2023-04-16T00:08:34.000Z,0
2023-04-16T00:09:38.000Z,0
2023-04-16T00:10:42.000Z,0
2023-04-16T00:11:47.000Z,0
2023-04-16T00:12:51.000Z,0
2023-04-16T00:13:55.000Z,0
2023-04-16T00:15:00.000Z,0
2023-04-16T00:16:04.000Z,0
2023-04-16T00:17:08.000Z,0
2023-04-16T00:18:12.000Z,0
2023-04-16T00:19:17.000Z,0
2023-04-16T00:20:21.000Z,0
2023-04-16T00:21:26.000Z,0
2023-04-16T00:22:30.000Z,0
2023-04-16T00:23:34.000Z,0
2023-04-16T00:24:39.000Z,0
2023-04-16T00:25:43.000Z,0
2023-04-16T00:26:47.000Z,0
2023-04-16T00:27:52.000Z,0
2023-04-16T00:28:56.000Z,0
2023-04-16T00:30:00.000Z,0
2023-04-16T00:31:05.000Z,0
2023-04-16T00:32:09.000Z,0
2023-04-16T00:33:13.000Z,0
2023-04-16T00:34:18.000Z,0
2023-04-16T00:35:22.000Z,0
2023-04-16T00:36:27.000Z,0
2023-04-16T00:37:31.000Z,0
2023-04-16T00:38:35.000Z,0
2023-04-16T00:39:40.000Z,0
2023-04-16T00:40:44.000Z,0
2023-04-16T00:41:48.000Z,0
2023-04-16T00:42:53.000Z,0
2023-04-16T00:43:57.000Z,0
2023-04-16T00:45:01.000Z,0
2023-04-16T00:46:06.000Z,0
2023-04-16T00:47:10.000Z,0
2023-04-16T00:48:15.000Z,0
2023-04-16T00:49:19.000Z,0
2023-04-16T00:50:23.000Z,0
2023-04-16T00:51:28.000Z,0
2023-04-16T00:52:32.000Z,0
2023-04-16T00:53:36.000Z,0
2023-04-16T00:54:41.000Z,0
2023-04-16T00:55:45.000Z,0
2023-04-16T00:56:49.000Z,0
2023-04-16T00:57:54.000Z,0
2023-04-16T00:58:58.000Z,0
2023-04-16T01:00:02.000Z,0
2023-04-16T01:01:07.000Z,0
2023-04-16T01:02:11.000Z,0
2023-04-16T01:03:15.000Z,0
2023-04-16T01:04:20.000Z,0
2023-04-16T01:05:24.000Z,0
2023-04-16T01:06:28.000Z,0
2023-04-16T01:07:33.000Z,0
2023-04-16T01:08:37.000Z,0
2023-04-16T01:09:41.000Z,0
2023-04-16T01:10:46.000Z,0
2023-04-16T01:11:50.000Z,0
2023-04-16T01:12:55.000Z,0
2023-04-16T01:13:59.000Z,0
2023-04-16T01:15:03.000Z,0
2023-04-16T01:16:08.000Z,0
2023-04-16T01:17:12.000Z,0
2023-04-16T01:18:16.000Z,0
2023-04-16T01:19:21.000Z,0
2023-04-16T01:20:25.000Z,0
2023-04-16T01:21:29.000Z,0
2023-04-16T01:22:34.000Z,0
2023-04-16T01:23:38.000Z,0
2023-04-16T01:24:42.000Z,0
2023-04-16T01:25:47.000Z,0
2023-04-16T01:26:51.000Z,0
2023-04-16T01:27:55.000Z,0
2023-04-16T01:29:00.000Z,0
2023-04-16T01:30:04.000Z,0
2023-04-16T01:31:08.000Z,0
2023-04-16T01:32:13.000Z,0
2023-04-16T01:33:17.000Z,0
2023-04-16T01:34:21.000Z,0
2023-04-16T01:35:26.000Z,0
2023-04-16T01:36:30.000Z,0
2023-04-16T01:37:34.000Z,0
2023-04-16T01:38:39.000Z,0
2023-04-16T01:39:43.000Z,0
2023-04-16T01:40:47.000Z,0
2023-04-16T01:41:52.000Z,0
2023-04-16T01:42:56.000Z,0
2023-04-16T01:44:00.000Z,0
2023-04-16T01:45:05.000Z,0
2023-04-16T01:46:09.000Z,0
2023-04-16T01:47:13.000Z,0
2023-04-16T01:48:17.000Z,0
2023-04-16T01:49:22.000Z,0
2023-04-16T01:50:26.000Z,0
2023-04-16T01:51:31.000Z,0
2023-04-16T01:52:35.000Z,0
2023-04-16T01:53:40.000Z,0
2023-04-16T01:54:44.000Z,0
2023-04-16T01:55:48.000Z,0
2023-04-16T01:56:53.000Z,0
2023-04-16T01:57:57.000Z,0
2023-04-16T01:59:01.000Z,0
2023-04-16T02:00:06.000Z,0
2023-04-16T02:01:10.000Z,0
2023-04-16T02:02:14.000Z,0
2023-04-16T02:03:19.000Z,0
2023-04-16T02:04:23.000Z,0
2023-04-16T02:05:27.000Z,0
2023-04-16T02:06:32.000Z,0
2023-04-16T02:07:36.000Z,0
2023-04-16T02:08:40.000Z,0
2023-04-16T02:09:45.000Z,0
2023-04-16T02:10:49.000Z,0
2023-04-16T02:11:53.000Z,0
2023-04-16T02:12:58.000Z,0
2023-04-16T02:14:02.000Z,0
2023-04-16T02:15:06.000Z,0
2023-04-16T02:16:11.000Z,0
2023-04-16T02:17:15.000Z,0
2023-04-16T02:18:19.000Z,0
2023-04-16T02:19:24.000Z,0
2023-04-16T02:20:28.000Z,0
2023-04-16T02:21:33.000Z,0
2023-04-16T02:22:37.000Z,0
2023-04-16T02:23:41.000Z,0
2023-04-16T02:24:46.000Z,0
2023-04-16T02:25:50.000Z,0
2023-04-16T02:26:54.000Z,0
2023-04-16T02:27:59.000Z,0
2023-04-16T02:29:03.000Z,0
2023-04-16T02:30:07.000Z,0
2023-04-16T02:31:12.000Z,0
2023-04-16T02:32:16.000Z,0
2023-04-16T02:33:21.000Z,0
2023-04-16T02:34:25.000Z,0
2023-04-16T02:35:29.000Z,0
2023-04-16T02:36:34.000Z,0
2023-04-16T02:37:38.000Z,0
2023-04-16T02:38:42.000Z,0
2023-04-16T02:39:47.000Z,0
2023-04-16T02:40:51.000Z,0
2023-04-16T02:41:55.000Z,0
2023-04-16T02:43:00.000Z,0
2023-04-16T02:44:04.000Z,0
2023-04-16T02:45:08.000Z,0
2023-04-16T02:46:13.000Z,0
2023-04-16T02:47:17.000Z,0
2023-04-16T02:48:21.000Z,0
2023-04-16T02:49:26.000Z,0
2023-04-16T02:50:30.000Z,0
2023-04-16T02:51:34.000Z,0
2023-04-16T02:52:39.000Z,0
2023-04-16T02:53:43.000Z,0
2023-04-16T02:54:48.000Z,0
2023-04-16T02:55:52.000Z,0
2023-04-16T02:56:56.000Z,0
2023-04-16T02:58:01.000Z,0
2023-04-16T02:59:05.000Z,0
2023-04-16T03:00:10.000Z,0
2023-04-16T03:01:14.000Z,0
2023-04-16T03:02:18.000Z,0
2023-04-16T03:03:23.000Z,0
2023-04-16T03:04:27.000Z,0
2023-04-16T03:05:31.000Z,0
2023-04-16T03:06:36.000Z,0
2023-04-16T03:07:40.000Z,0
2023-04-16T03:08:45.000Z,0
2023-04-16T03:09:49.000Z,0
2023-04-16T03:10:53.000Z,0
2023-04-16T03:11:58.000Z,0
2023-04-16T03:13:02.000Z,0
2023-04-16T03:14:06.000Z,0
2023-04-16T03:15:11.000Z,0
2023-04-16T03:16:15.000Z,0
2023-04-16T03:17:20.000Z,0
2023-04-16T03:18:24.000Z,0
2023-04-16T03:19:28.000Z,0
2023-04-16T03:20:33.000Z,0
2023-04-16T03:21:37.000Z,0
2023-04-16T03:22:41.000Z,0
2023-04-16T03:23:46.000Z,0
2023-04-16T03:24:50.000Z,0
2023-04-16T03:25:54.000Z,0
2023-04-16T03:26:59.000Z,0
2023-04-16T03:28:03.000Z,0
2023-04-16T03:29:08.000Z,0
2023-04-16T03:30:12.000Z,0
2023-04-16T03:31:16.000Z,0
2023-04-16T03:32:21.000Z,0
2023-04-16T03:33:25.000Z,0
2023-04-16T03:34:30.000Z,0
2023-04-16T03:35:34.000Z,0
2023-04-16T03:36:38.000Z,0
2023-04-16T03:37:43.000Z,0
2023-04-16T03:38:47.000Z,0
2023-04-16T03:39:52.000Z,0
2023-04-16T03:40:56.000Z,0
2023-04-16T03:42:00.000Z,0
2023-04-16T03:43:05.000Z,0
2023-04-16T03:44:09.000Z,0
2023-04-16T03:45:19.000Z,0
2023-04-16T03:46:23.000Z,0
2023-04-16T03:47:27.000Z,0
2023-04-16T03:48:32.000Z,0
2023-04-16T03:49:36.000Z,0
2023-04-16T03:50:41.000Z,0
2023-04-16T03:51:45.000Z,0
2023-04-16T03:52:50.000Z,0
2023-04-16T03:53:54.000Z,0
2023-04-16T03:54:58.000Z,0
2023-04-16T03:56:03.000Z,0
2023-04-16T03:57:07.000Z,0
2023-04-16T03:58:12.000Z,0
2023-04-16T03:59:16.000Z,0
2023-04-16T04:00:20.000Z,0
2023-04-16T04:01:25.000Z,0
2023-04-16T04:02:29.000Z,0
2023-04-16T04:03:34.000Z,0
2023-04-16T04:04:38.000Z,0
2023-04-16T04:05:42.000Z,0
2023-04-16T04:06:47.000Z,0
2023-04-16T04:07:51.000Z,0
2023-04-16T04:08:56.000Z,0
2023-04-16T04:10:00.000Z,0
2023-04-16T04:11:05.000Z,0
2023-04-16T04:12:09.000Z,0
2023-04-16T04:13:13.000Z,1
2023-04-16T04:14:18.000Z,1
2023-04-16T04:15:22.000Z,1
2023-04-16T04:16:26.000Z,1
2023-04-16T04:17:31.000Z,2
2023-04-16T04:18:35.000Z,2
2023-04-16T04:19:40.000Z,2
2023-04-16T04:20:44.000Z,2
2023-04-16T04:21:48.000Z,2
2023-04-16T04:22:53.000Z,2
2023-04-16T04:24:02.000Z,3
2023-04-16T04:25:07.000Z,3
2023-04-16T04:26:11.000Z,3
2023-04-16T04:27:15.000Z,3
2023-04-16T04:28:20.000Z,4
2023-04-16T04:29:24.000Z,4
2023-04-16T04:30:29.000Z,4
2023-04-16T04:31:33.000Z,4
2023-04-16T04:32:37.000Z,5
2023-04-16T04:33:42.000Z,5
2023-04-16T04:34:46.000Z,6
2023-04-16T04:35:50.000Z,6
2023-04-16T04:36:55.000Z,7
2023-04-16T04:37:59.000Z,7
2023-04-16T04:39:04.000Z,8
2023-04-16T04:40:08.000Z,8
2023-04-16T04:41:12.000Z,8
2023-04-16T04:42:17.000Z,8
2023-04-16T04:43:21.000Z,9
2023-04-16T04:44:25.000Z,9
2023-04-16T04:45:30.000Z,9
2023-04-16T04:46:34.000Z,9
2023-04-16T04:47:39.000Z,9
2023-04-16T04:48:43.000Z,9
2023-04-16T04:49:47.000Z,10
2023-04-16T04:50:52.000Z,10
2023-04-16T04:51:56.000Z,10
2023-04-16T04:53:01.000Z,11
2023-04-16T04:54:05.000Z,11
2023-04-16T04:55:09.000Z,12
2023-04-16T04:56:14.000Z,13
2023-04-16T04:57:18.000Z,13
2023-04-16T04:58:23.000Z,14
2023-04-16T04:59:27.000Z,15
2023-04-16T05:00:32.000Z,16
2023-04-16T05:01:36.000Z,16
2023-04-16T05:02:40.000Z,16
2023-04-16T05:03:45.000Z,16
2023-04-16T05:04:49.000Z,17
2023-04-16T05:05:53.000Z,17
2023-04-16T05:06:59.000Z,17
2023-04-16T05:08:03.000Z,17
2023-04-16T05:09:08.000Z,18
2023-04-16T05:10:12.000Z,19
2023-04-16T05:11:17.000Z,19
2023-04-16T05:12:21.000Z,20
2023-04-16T05:13:25.000Z,20
2023-04-16T05:14:30.000Z,20
2023-04-16T05:15:34.000Z,20
2023-04-16T05:16:38.000Z,20
2023-04-16T05:17:43.000Z,20
2023-04-16T05:18:47.000Z,21
2023-04-16T05:19:52.000Z,21
2023-04-16T05:20:56.000Z,22
2023-04-16T05:22:00.000Z,22
2023-04-16T05:23:05.000Z,23
2023-04-16T05:24:09.000Z,23
2023-04-16T05:25:14.000Z,24
2023-04-16T05:26:18.000Z,25
2023-04-16T05:27:22.000Z,27
2023-04-16T05:28:27.000Z,29
2023-04-16T05:29:31.000Z,31
2023-04-16T05:30:36.000Z,32
2023-04-16T05:31:40.000Z,33
2023-04-16T05:32:44.000Z,34
2023-04-16T05:33:49.000Z,35
2023-04-16T05:34:53.000Z,35
2023-04-16T05:35:57.000Z,35
2023-04-16T05:37:02.000Z,35
2023-04-16T05:38:06.000Z,36
2023-04-16T05:39:11.000Z,36
2023-04-16T05:40:15.000Z,36
2023-04-16T05:41:19.000Z,37
2023-04-16T05:42:24.000Z,37
2023-04-16T05:43:28.000Z,37
2023-04-16T05:44:32.000Z,38
2023-04-16T05:45:37.000Z,38
2023-04-16T05:46:41.000Z,38
2023-04-16T05:47:45.000Z,38
2023-04-16T05:48:50.000Z,38
2023-04-16T05:49:54.000Z,38
2023-04-16T05:50:59.000Z,38
2023-04-16T05:52:03.000Z,39
2023-04-16T05:53:07.000Z,39
2023-04-16T05:54:12.000Z,39
2023-04-16T05:55:16.000Z,40
2023-04-16T05:56:21.000Z,40
2023-04-16T05:57:25.000Z,40
2023-04-16T05:58:29.000Z,39
2023-04-16T05:59:34.000Z,38
2023-04-16T06:00:38.000Z,37
2023-04-16T06:01:42.000Z,36
2023-04-16T06:02:47.000Z,35
2023-04-16T06:03:51.000Z,35
2023-04-16T06:04:56.000Z,34
2023-04-16T06:06:00.000Z,34
2023-04-16T06:07:04.000Z,34
2023-04-16T06:08:09.000Z,34
2023-04-16T06:09:13.000Z,34
2023-04-16T06:10:18.000Z,35
2023-04-16T06:11:22.000Z,35
2023-04-16T06:12:26.000Z,36
2023-04-16T06:13:31.000Z,37
2023-04-16T06:14:35.000Z,38
2023-04-16T06:15:40.000Z,40
2023-04-16T06:16:44.000Z,41
2023-04-16T06:17:48.000Z,43
2023-04-16T06:18:53.000Z,46
2023-04-16T06:19:57.000Z,48
2023-04-16T06:21:01.000Z,50
2023-04-16T06:22:06.000Z,53
2023-04-16T06:23:10.000Z,55
2023-04-16T06:24:15.000Z,58
2023-04-16T06:25:19.000Z,59
2023-04-16T06:26:23.000Z,60
2023-04-16T06:27:28.000Z,59
2023-04-16T06:28:32.000Z,58
2023-04-16T06:29:37.000Z,57
2023-04-16T06:30:41.000Z,57
2023-04-16T06:31:46.000Z,57
2023-04-16T06:32:50.000Z,58
2023-04-16T06:33:54.000Z,59
2023-04-16T06:34:59.000Z,59
2023-04-16T06:36:03.000Z,59
2023-04-16T06:37:07.000Z,58
2023-04-16T06:38:12.000Z,58
2023-04-16T06:39:16.000Z,59
2023-04-16T06:40:21.000Z,61
2023-04-16T06:41:25.000Z,62
2023-04-16T06:42:30.000Z,63
2023-04-16T06:43:34.000Z,64
2023-04-16T06:44:38.000Z,67
2023-04-16T06:45:43.000Z,68
2023-04-16T06:46:47.000Z,70
2023-04-16T06:47:51.000Z,72
2023-04-16T06:48:56.000Z,73
2023-04-16T06:50:00.000Z,72
2023-04-16T06:51:04.000Z,71
2023-04-16T06:52:09.000Z,70
2023-04-16T06:53:13.000Z,71
2023-04-16T06:54:18.000Z,73
2023-04-16T06:55:22.000Z,76
2023-04-16T06:56:27.000Z,80
2023-04-16T06:57:32.000Z,82
2023-04-16T06:58:36.000Z,85
2023-04-16T06:59:40.000Z,84
2023-04-16T07:00:45.000Z,83
2023-04-16T07:01:49.000Z,82
2023-04-16T07:02:54.000Z,82
2023-04-16T07:03:58.000Z,82
2023-04-16T07:05:02.000Z,85
2023-04-16T07:06:07.000Z,90
2023-04-16T07:07:11.000Z,95
2023-04-16T07:08:15.000Z,97
2023-04-16T07:09:20.000Z,99
2023-04-16T07:10:24.000Z,100
2023-04-16T07:11:29.000Z,102
2023-04-16T07:12:33.000Z,106
2023-04-16T07:13:37.000Z,111
2023-04-16T07:14:42.000Z,115
2023-04-16T07:15:46.000Z,118
2023-04-16T07:16:50.000Z,120
2023-04-16T07:17:55.000Z,123
2023-04-16T07:18:59.000Z,129
2023-04-16T07:20:03.000Z,137
2023-04-16T07:21:08.000Z,144
2023-04-16T07:22:12.000Z,150
2023-04-16T07:23:17.000Z,151
2023-04-16T07:24:21.000Z,151
2023-04-16T07:25:25.000Z,151
2023-04-16T07:26:30.000Z,148
2023-04-16T07:27:34.000Z,140
2023-04-16T07:28:38.000Z,131
2023-04-16T07:29:43.000Z,124
2023-04-16T07:30:47.000Z,122
2023-04-16T07:31:51.000Z,120
2023-04-16T07:32:56.000Z,116
2023-04-16T07:34:00.000Z,110
2023-04-16T07:35:04.000Z,105
2023-04-16T07:36:09.000Z,102
2023-04-16T07:37:13.000Z,100
2023-04-16T07:38:17.000Z,100
2023-04-16T07:39:22.000Z,102
2023-04-16T07:40:26.000Z,108
2023-04-16T07:41:30.000Z,116
2023-04-16T07:42:35.000Z,124
2023-04-16T07:43:44.000Z,136
2023-04-16T07:44:48.000Z,142
2023-04-16T07:45:53.000Z,148
2023-04-16T07:46:57.000Z,148
2023-04-16T07:48:01.000Z,149
2023-04-16T07:49:05.000Z,148
2023-04-16T07:50:10.000Z,145
2023-04-16T07:51:14.000Z,136
2023-04-16T07:52:19.000Z,132
2023-04-16T07:53:23.000Z,128
2023-04-16T07:54:27.000Z,125
2023-04-16T07:55:31.000Z,122
2023-04-16T07:56:36.000Z,122
2023-04-16T07:57:40.000Z,120
2023-04-16T07:58:44.000Z,119
2023-04-16T07:59:49.000Z,117
2023-04-16T08:00:53.000Z,115
2023-04-16T08:01:57.000Z,113
2023-04-16T08:03:02.000Z,114
2023-04-16T08:04:06.000Z,116
2023-04-16T08:05:11.000Z,118
2023-04-16T08:06:15.000Z,119
2023-04-16T08:07:19.000Z,118
2023-04-16T08:08:24.000Z,119
2023-04-16T08:09:28.000Z,121
2023-04-16T08:10:32.000Z,122
2023-04-16T08:11:37.000Z,124
2023-04-16T08:12:41.000Z,124
2023-04-16T08:13:45.000Z,125
2023-04-16T08:14:50.000Z,127
2023-04-16T08:15:54.000Z,127
2023-04-16T08:16:58.000Z,125
2023-04-16T08:18:03.000Z,120
2023-04-16T08:19:07.000Z,112
2023-04-16T08:20:12.000Z,105
2023-04-16T08:21:16.000Z,101
2023-04-16T08:22:20.000Z,96
2023-04-16T08:23:25.000Z,92
2023-04-16T08:24:29.000Z,89
2023-04-16T08:25:38.000Z,90
2023-04-16T08:26:43.000Z,94
2023-04-16T08:27:47.000Z,100
2023-04-16T08:28:51.000Z,105
2023-04-16T08:29:56.000Z,108
2023-04-16T08:31:00.000Z,108
2023-04-16T08:32:04.000Z,112
2023-04-16T08:33:09.000Z,117
2023-04-16T08:34:13.000Z,127
2023-04-16T08:35:18.000Z,143
2023-04-16T08:36:22.000Z,157
2023-04-16T08:37:26.000Z,168
2023-04-16T08:38:31.000Z,173
2023-04-16T08:39:35.000Z,175
2023-04-16T08:40:39.000Z,177
2023-04-16T08:41:44.000Z,180
2023-04-16T08:42:48.000Z,182
2023-04-16T08:43:52.000Z,183
2023-04-16T08:44:57.000Z,185
2023-04-16T08:46:01.000Z,187
2023-04-16T08:47:10.000Z,192
2023-04-16T08:48:15.000Z,199
2023-04-16T08:49:19.000Z,212
2023-04-16T08:50:23.000Z,228
2023-04-16T08:51:28.000Z,248
2023-04-16T08:52:32.000Z,262
2023-04-16T08:53:36.000Z,274
2023-04-16T08:54:41.000Z,289
2023-04-16T08:55:45.000Z,299
2023-04-16T08:56:49.000Z,308
2023-04-16T08:57:53.000Z,317
2023-04-16T08:58:58.000Z,327
2023-04-16T09:00:02.000Z,334
2023-04-16T09:01:06.000Z,341
2023-04-16T09:02:11.000Z,344
2023-04-16T09:03:15.000Z,349
2023-04-16T09:04:19.000Z,361
2023-04-16T09:05:24.000Z,369
2023-04-16T09:06:28.000Z,370
2023-04-16T09:07:32.000Z,372
2023-04-16T09:08:36.000Z,366
2023-04-16T09:09:41.000Z,354
2023-04-16T09:10:45.000Z,345
2023-04-16T09:11:49.000Z,336
2023-04-16T09:12:54.000Z,337
2023-04-16T09:13:58.000Z,342
2023-04-16T09:15:02.000Z,347
2023-04-16T09:16:06.000Z,356
2023-04-16T09:17:11.000Z,375
2023-04-16T09:18:15.000Z,378
2023-04-16T09:19:19.000Z,372
2023-04-16T09:20:24.000Z,365
2023-04-16T09:21:28.000Z,357
2023-04-16T09:22:32.000Z,345
2023-04-16T09:23:37.000Z,339
2023-04-16T09:24:41.000Z,342
2023-04-16T09:25:45.000Z,349
2023-04-16T09:26:49.000Z,354
2023-04-16T09:27:54.000Z,338
2023-04-16T09:28:58.000Z,326
2023-04-16T09:30:02.000Z,319
2023-04-16T09:31:08.000Z,312
2023-04-16T09:32:12.000Z,303
2023-04-16T09:33:16.000Z,303
2023-04-16T09:34:21.000Z,305
2023-04-16T09:35:25.000Z,315
2023-04-16T09:36:29.000Z,333
2023-04-16T09:37:33.000Z,354
2023-04-16T09:38:38.000Z,381
2023-04-16T09:39:42.000Z,398
2023-04-16T09:40:46.000Z,410
2023-04-16T09:41:51.000Z,436
2023-04-16T09:42:55.000Z,440
2023-04-16T09:43:59.000Z,443
2023-04-16T09:45:04.000Z,451
2023-04-16T09:46:08.000Z,443
2023-04-16T09:47:12.000Z,406
2023-04-16T09:48:17.000Z,382
2023-04-16T09:49:21.000Z,388
2023-04-16T09:50:25.000Z,417
2023-04-16T09:51:29.000Z,440
2023-04-16T09:52:34.000Z,449
2023-04-16T09:53:38.000Z,438
2023-04-16T09:54:42.000Z,412
2023-04-16T09:55:47.000Z,363
2023-04-16T09:56:51.000Z,325
2023-04-16T09:57:56.000Z,287
2023-04-16T09:59:00.000Z,270
2023-04-16T10:00:04.000Z,261
2023-04-16T10:01:08.000Z,262
2023-04-16T10:02:13.000Z,256
2023-04-16T10:03:17.000Z,256
2023-04-16T10:04:21.000Z,256
2023-04-16T10:05:25.000Z,243
2023-04-16T10:06:30.000Z,219
2023-04-16T10:07:34.000Z,197
2023-04-16T10:08:38.000Z,171
2023-04-16T10:09:43.000Z,148
2023-04-16T10:10:47.000Z,136
2023-04-16T10:11:51.000Z,134
2023-04-16T10:12:55.000Z,140
2023-04-16T10:13:59.000Z,150
2023-04-16T10:15:04.000Z,161
2023-04-16T10:16:08.000Z,165
2023-04-16T10:17:12.000Z,167
2023-04-16T10:18:17.000Z,169
2023-04-16T10:19:21.000Z,170
2023-04-16T10:20:25.000Z,170
2023-04-16T10:21:29.000Z,167
2023-04-16T10:22:33.000Z,178
2023-04-16T10:23:38.000Z,193
2023-04-16T10:24:42.000Z,206
2023-04-16T10:25:46.000Z,212
2023-04-16T10:26:51.000Z,212
2023-04-16T10:27:55.000Z,206
2023-04-16T10:28:59.000Z,203
2023-04-16T10:30:03.000Z,207
2023-04-16T10:31:08.000Z,197
2023-04-16T10:32:12.000Z,182
2023-04-16T10:33:16.000Z,185
2023-04-16T10:34:21.000Z,199
2023-04-16T10:35:25.000Z,206
2023-04-16T10:36:29.000Z,211
2023-04-16T10:37:33.000Z,208
2023-04-16T10:38:38.000Z,201
2023-04-16T10:39:42.000Z,198
2023-04-16T10:40:46.000Z,203
2023-04-16T10:41:51.000Z,201
2023-04-16T10:42:55.000Z,194
2023-04-16T10:43:59.000Z,194
2023-04-16T10:45:03.000Z,197
2023-04-16T10:46:07.000Z,198
2023-04-16T10:47:12.000Z,205
2023-04-16T10:48:16.000Z,200
2023-04-16T10:49:20.000Z,179
2023-04-16T10:50:25.000Z,180
2023-04-16T10:51:29.000Z,193
2023-04-16T10:52:33.000Z,202
2023-04-16T10:53:37.000Z,205
2023-04-16T10:54:42.000Z,207
2023-04-16T10:55:46.000Z,206
2023-04-16T10:56:50.000Z,201
2023-04-16T10:57:55.000Z,193
2023-04-16T10:58:59.000Z,188
2023-04-16T11:00:03.000Z,184
2023-04-16T11:01:07.000Z,174
2023-04-16T11:02:12.000Z,165
2023-04-16T11:03:16.000Z,159
2023-04-16T11:04:20.000Z,154
2023-04-16T11:05:25.000Z,148
2023-04-16T11:06:29.000Z,148
2023-04-16T11:07:33.000Z,156
2023-04-16T11:08:37.000Z,165
2023-04-16T11:09:42.000Z,175
2023-04-16T11:10:46.000Z,183
2023-04-16T11:11:50.000Z,189
2023-04-16T11:12:55.000Z,195
2023-04-16T11:13:59.000Z,204
2023-04-16T11:15:03.000Z,207
2023-04-16T11:16:08.000Z,214
2023-04-16T11:17:12.000Z,221
2023-04-16T11:18:16.000Z,225
2023-04-16T11:19:21.000Z,226
2023-04-16T11:20:25.000Z,230
2023-04-16T11:21:29.000Z,237
2023-04-16T11:22:33.000Z,239
2023-04-16T11:23:38.000Z,241
2023-04-16T11:24:42.000Z,231
2023-04-16T11:25:46.000Z,213
2023-04-16T11:26:50.000Z,201
2023-04-16T11:27:55.000Z,189
2023-04-16T11:28:59.000Z,185
2023-04-16T11:30:03.000Z,192
2023-04-16T11:31:07.000Z,199
2023-04-16T11:32:12.000Z,204
2023-04-16T11:33:16.000Z,209
2023-04-16T11:34:20.000Z,211
2023-04-16T11:35:25.000Z,216
2023-04-16T11:36:29.000Z,225
2023-04-16T11:37:33.000Z,234
2023-04-16T11:38:37.000Z,237
2023-04-16T11:39:42.000Z,230
2023-04-16T11:40:46.000Z,219
2023-04-16T11:41:50.000Z,206
2023-04-16T11:42:55.000Z,190
2023-04-16T11:43:59.000Z,171
2023-04-16T11:45:03.000Z,149
2023-04-16T11:46:08.000Z,130
2023-04-16T11:47:12.000Z,119
2023-04-16T11:48:16.000Z,110
2023-04-16T11:49:20.000Z,106
2023-04-16T11:50:25.000Z,103
2023-04-16T11:51:29.000Z,100
2023-04-16T11:52:33.000Z,95
2023-04-16T11:53:38.000Z,91
2023-04-16T11:54:42.000Z,85
2023-04-16T11:55:46.000Z,76
2023-04-16T11:56:50.000Z,70
2023-04-16T11:57:55.000Z,67
2023-04-16T11:58:59.000Z,68
2023-04-16T12:00:03.000Z,69
2023-04-16T12:01:08.000Z,68
2023-04-16T12:02:12.000Z,66
2023-04-16T12:03:16.000Z,63
2023-04-16T12:04:20.000Z,60
2023-04-16T12:05:25.000Z,59
2023-04-16T12:06:29.000Z,58
2023-04-16T12:07:33.000Z,57
2023-04-16T12:08:38.000Z,55
2023-04-16T12:09:42.000Z,53
2023-04-16T12:10:46.000Z,50
2023-04-16T12:11:51.000Z,49
2023-04-16T12:12:55.000Z,48
2023-04-16T12:13:59.000Z,47
2023-04-16T12:15:03.000Z,47
2023-04-16T12:16:08.000Z,44
2023-04-16T12:17:12.000Z,41
2023-04-16T12:18:16.000Z,39
2023-04-16T12:19:20.000Z,39
2023-04-16T12:20:25.000Z,39
2023-04-16T12:21:29.000Z,38
2023-04-16T12:22:33.000Z,37
2023-04-16T12:23:37.000Z,35
2023-04-16T12:24:42.000Z,33
2023-04-16T12:25:46.000Z,35
2023-04-16T12:26:50.000Z,46
2023-04-16T12:28:00.000Z,55
2023-04-16T12:29:04.000Z,68
2023-04-16T12:30:08.000Z,71
2023-04-16T12:31:14.000Z,76
2023-04-16T12:32:18.000Z,87
2023-04-16T12:33:22.000Z,92
2023-04-16T12:34:26.000Z,100
2023-04-16T12:35:31.000Z,106
2023-04-16T12:36:35.000Z,116
2023-04-16T12:37:39.000Z,122
2023-04-16T12:38:44.000Z,122
2023-04-16T12:39:48.000Z,131
2023-04-16T12:40:52.000Z,139
2023-04-16T12:41:57.000Z,145
2023-04-16T12:43:01.000Z,156
2023-04-16T12:44:05.000Z,148
2023-04-16T12:45:09.000Z,148
2023-04-16T12:46:14.000Z,150
2023-04-16T12:47:18.000Z,157
2023-04-16T12:48:22.000Z,155
2023-04-16T12:49:27.000Z,154
2023-04-16T12:50:31.000Z,142
2023-04-16T12:51:36.000Z,128
2023-04-16T12:52:40.000Z,115
2023-04-16T12:53:44.000Z,109
2023-04-16T12:54:49.000Z,94
2023-04-16T12:55:53.000Z,89
2023-04-16T12:56:57.000Z,111
2023-04-16T12:58:01.000Z,132
2023-04-16T12:59:11.000Z,142
2023-04-16T13:00:15.000Z,141
2023-04-16T13:01:19.000Z,140
2023-04-16T13:02:24.000Z,141
2023-04-16T13:03:28.000Z,148
2023-04-16T13:04:32.000Z,159
2023-04-16T13:05:37.000Z,172
2023-04-16T13:06:41.000Z,185
2023-04-16T13:07:45.000Z,192
2023-04-16T13:08:50.000Z,192
2023-04-16T13:09:54.000Z,193
2023-04-16T13:10:58.000Z,189
2023-04-16T13:12:02.000Z,188
2023-04-16T13:13:07.000Z,187
2023-04-16T13:14:11.000Z,173
2023-04-16T13:15:15.000Z,161
2023-04-16T13:16:19.000Z,156
2023-04-16T13:17:24.000Z,154
2023-04-16T13:18:28.000Z,161
2023-04-16T13:19:32.000Z,174
2023-04-16T13:20:36.000Z,183
2023-04-16T13:21:41.000Z,194
2023-04-16T13:22:45.000Z,209
2023-04-16T13:23:49.000Z,220
2023-04-16T13:24:53.000Z,207
2023-04-16T13:25:58.000Z,219
2023-04-16T13:27:02.000Z,219
2023-04-16T13:28:06.000Z,229
2023-04-16T13:29:11.000Z,241
2023-04-16T13:30:15.000Z,217
2023-04-16T13:31:19.000Z,192
2023-04-16T13:32:24.000Z,193
2023-04-16T13:33:28.000Z,206
2023-04-16T13:34:32.000Z,202
2023-04-16T13:35:37.000Z,173
2023-04-16T13:36:41.000Z,126
2023-04-16T13:37:45.000Z,109
2023-04-16T13:38:49.000Z,110
2023-04-16T13:39:54.000Z,128
2023-04-16T13:40:58.000Z,128
2023-04-16T13:42:02.000Z,142
2023-04-16T13:43:06.000Z,157
2023-04-16T13:44:11.000Z,153
2023-04-16T13:45:15.000Z,144
2023-04-16T13:46:19.000Z,153
2023-04-16T13:47:24.000Z,152
2023-04-16T13:48:29.000Z,148
2023-04-16T13:49:33.000Z,167
2023-04-16T13:50:38.000Z,184
2023-04-16T13:51:42.000Z,182
2023-04-16T13:52:46.000Z,164
2023-04-16T13:53:51.000Z,167
2023-04-16T13:54:55.000Z,152
2023-04-16T13:55:59.000Z,119
2023-04-16T13:57:03.000Z,98
2023-04-16T13:58:08.000Z,107
2023-04-16T13:59:12.000Z,125
2023-04-16T14:00:16.000Z,153
2023-04-16T14:01:21.000Z,165
2023-04-16T14:02:30.000Z,141
2023-04-16T14:03:34.000Z,134
2023-04-16T14:04:38.000Z,133
2023-04-16T14:05:43.000Z,141
2023-04-16T14:06:47.000Z,135
2023-04-16T14:07:51.000Z,121
2023-04-16T14:08:55.000Z,122
2023-04-16T14:10:00.000Z,117
2023-04-16T14:11:04.000Z,104
2023-04-16T14:12:08.000Z,92
2023-04-16T14:13:13.000Z,94
2023-04-16T14:14:17.000Z,106
2023-04-16T14:15:21.000Z,117
2023-04-16T14:16:26.000Z,126
2023-04-16T14:17:30.000Z,130
2023-04-16T14:18:34.000Z,123
2023-04-16T14:19:43.000Z,117
2023-04-16T14:20:48.000Z,117
2023-04-16T14:21:52.000Z,116
2023-04-16T14:22:56.000Z,116
2023-04-16T14:24:01.000Z,116
2023-04-16T14:25:05.000Z,113
2023-04-16T14:26:09.000Z,110
2023-04-16T14:27:13.000Z,104
2023-04-16T14:28:18.000Z,99
2023-04-16T14:29:22.000Z,103
2023-04-16T14:30:26.000Z,109
2023-04-16T14:31:30.000Z,107
2023-04-16T14:32:35.000Z,96
2023-04-16T14:33:39.000Z,83
2023-04-16T14:34:43.000Z,79
2023-04-16T14:35:47.000Z,93
2023-04-16T14:36:52.000Z,118
2023-04-16T14:37:56.000Z,149
2023-04-16T14:39:00.000Z,168
2023-04-16T14:40:05.000Z,171
2023-04-16T14:41:09.000Z,170
2023-04-16T14:42:13.000Z,169
2023-04-16T14:43:18.000Z,168
2023-04-16T14:44:22.000Z,168
2023-04-16T14:45:26.000Z,164
2023-04-16T14:46:30.000Z,163
2023-04-16T14:47:35.000Z,175
2023-04-16T14:48:39.000Z,195
2023-04-16T14:49:43.000Z,211
2023-04-16T14:50:48.000Z,222
2023-04-16T14:51:52.000Z,216
2023-04-16T14:52:56.000Z,191
2023-04-16T14:54:01.000Z,152
2023-04-16T14:55:05.000Z,110
2023-04-16T14:56:09.000Z,82
2023-04-16T14:57:13.000Z,85
2023-04-16T14:58:18.000Z,83
2023-04-16T14:59:22.000Z,75
2023-04-16T15:00:26.000Z,74
2023-04-16T15:01:31.000Z,68
2023-04-16T15:02:35.000Z,69
2023-04-16T15:03:39.000Z,73
2023-04-16T15:04:43.000Z,82
2023-04-16T15:05:48.000Z,75
2023-04-16T15:06:52.000Z,66
2023-04-16T15:07:56.000Z,60
2023-04-16T15:09:01.000Z,68
2023-04-16T15:10:05.000Z,81
2023-04-16T15:11:09.000Z,70
2023-04-16T15:12:13.000Z,57
2023-04-16T15:13:18.000Z,67
2023-04-16T15:14:22.000Z,71